Time;durP1;ratioP1;P1;durP2;ratioP2;P2;SDS_P1;SDS_P2;PMS_P1;PMS_P2;Temp;Humidity;BMP_temperature;BMP_pressure;BME280_temperature;BME280_humidity;BME280_pressure;Samples;Min_cycle;Max_cycle;Signal;HPM_P1;HPM_P2
2022/12/15 00:40:37;;;;;;;42.85;22.35;;;;;;;-6.43;91.74;100271.56;5032542;28;20100;-61
2022/12/15 00:43:03;;;;;;;50.03;24.02;;;;;;;-6.48;91.69;100276.38;5035814;28;20041;-62
2022/12/15 00:48:12;;;;;;;50.47;23.23;;;;;;;-6.59;90.64;100280.84;5028909;28;20040;-61
2022/12/15 00:50:53;;;;;;;48.13;22.92;;;;;;;-6.67;90.58;100277.06;5026919;28;20017;-61
2022/12/15 01:20:38;;;;;;;62.08;26.98;;;;;;;-6.65;92.76;100303.13;5052118;28;20048;-64
2022/12/15 01:23:04;;;;;;;72.43;28.80;;;;;;;-6.63;93.12;100304.06;5044088;28;20049;-64
2022/12/15 01:25:29;;;;;;;59.53;25.73;;;;;;;-6.61;93.49;100309.19;5055701;28;20044;-63
2022/12/15 01:27:55;;;;;;;58.25;26.42;;;;;;;-6.61;93.00;100306.69;5054926;28;20109;-63
2022/12/15 01:30:25;;;;;;;64.82;27.95;;;;;;;-6.59;93.89;100315.16;5052074;28;20150;-64
2022/12/15 01:32:51;;;;;;;65.35;25.58;;;;;;;-6.59;93.80;100321.06;5049868;28;20087;-63
2022/12/15 01:35:17;;;;;;;54.92;22.50;;;;;;;-6.57;93.12;100327.00;5030879;28;20160;-63
2022/12/15 01:37:43;;;;;;;50.85;21.83;;;;;;;-6.55;93.53;100323.72;5037160;28;20113;-63
2022/12/15 01:42:56;;;;;;;59.17;24.73;;;;;;;-6.65;93.23;100315.72;5041689;28;20106;-63
2022/12/15 01:45:28;;;;;;;59.28;23.52;;;;;;;-6.71;92.74;100314.50;5050164;28;20053;-63
2022/12/15 01:48:04;;;;;;;53.58;23.67;;;;;;;-6.79;92.74;100315.78;5051719;28;20090;-64
2022/12/15 01:50:34;;;;;;;53.65;21.23;;;;;;;-6.82;92.79;100325.66;5051640;28;20048;-63
2022/12/15 01:53:00;;;;;;;57.90;24.08;;;;;;;-6.82;93.08;100319.00;5052321;28;20161;-64
2022/12/15 01:55:28;;;;;;;60.20;23.48;;;;;;;-6.80;93.32;100324.94;5054021;28;20147;-65
2022/12/15 01:57:59;;;;;;;52.92;23.98;;;;;;;-6.81;92.72;100334.94;5055632;28;20515;-66
2022/12/15 02:00:25;;;;;;;54.22;24.17;;;;;;;-6.82;93.44;100336.56;5050317;28;20442;-65
2022/12/15 02:02:51;;;;;;;60.05;23.60;;;;;;;-6.79;93.57;100339.25;5056935;28;20151;-66
2022/12/15 02:05:17;;;;;;;52.65;22.67;;;;;;;-6.76;93.36;100351.97;5052611;28;20040;-66
2022/12/15 02:07:42;;;;;;;55.38;23.80;;;;;;;-6.78;93.63;100353.56;5053919;28;20063;-66
2022/12/15 02:10:09;;;;;;;53.60;23.30;;;;;;;-6.79;93.23;100354.31;5050984;28;20393;-66
2022/12/15 02:12:56;;;;;;;52.80;23.45;;;;;;;-6.85;93.52;100348.97;5052473;28;20144;-66
2022/12/15 02:16:03;;;;;;;46.97;19.27;;;;;;;-6.88;92.83;100346.31;5061669;28;20689;-68
2022/12/15 02:18:41;;;;;;;49.85;19.73;;;;;;;-6.96;92.61;100349.19;5055088;28;20041;-68
2022/12/15 02:21:23;;;;;;;40.90;21.45;;;;;;;-7.07;91.89;100361.19;5059757;28;20036;-68
2022/12/15 02:23:57;;;;;;;52.80;21.33;;;;;;;-7.20;92.16;100357.16;5054173;28;20048;-68
2022/12/15 02:27:00;;;;;;;37.47;15.98;;;;;;;-7.26;91.71;100363.47;5053857;28;20044;-68
2022/12/15 02:29:28;;;;;;;45.85;19.90;;;;;;;-7.29;92.00;100363.31;5050308;28;20036;-65
2022/12/15 02:32:02;;;;;;;47.60;19.33;;;;;;;-7.31;92.35;100357.34;5055584;28;20546;-68
2022/12/15 02:34:30;;;;;;;57.03;22.52;;;;;;;-7.35;91.95;100362.97;5053293;28;20048;-67
2022/12/15 02:37:04;;;;;;;55.30;22.67;;;;;;;-7.39;92.14;100363.56;5057507;28;20051;-68
2022/12/15 02:39:30;;;;;;;54.55;22.52;;;;;;;-7.44;91.89;100370.00;5049069;28;20110;-70
2022/12/15 02:41:55;;;;;;;57.45;22.33;;;;;;;-7.48;91.52;100368.94;5054464;28;20079;-66
2022/12/15 02:44:21;;;;;;;48.60;21.02;;;;;;;-7.48;91.41;100365.56;5055944;28;20036;-68
2022/12/15 02:46:52;;;;;;;57.80;23.50;;;;;;;-7.49;91.31;100369.75;5058326;28;20109;-66
2022/12/15 02:49:34;;;;;;;61.03;22.13;;;;;;;-7.47;91.64;100375.72;5049131;28;20037;-67
2022/12/15 02:52:25;;;;;;;49.20;22.17;;;;;;;-7.45;91.64;100376.66;5044531;28;20037;-65
2022/12/15 02:55:04;;;;;;;53.92;21.92;;;;;;;-7.43;91.74;100379.25;5036783;28;20043;-68
2022/12/15 02:57:51;;;;;;;48.53;21.15;;;;;;;-7.45;91.15;100380.81;5033972;28;20041;-68
2022/12/15 03:00:17;;;;;;;50.80;22.30;;;;;;;-7.44;91.54;100382.53;5034112;28;20108;-69
2022/12/15 03:02:54;;;;;;;51.72;21.10;;;;;;;-7.48;91.00;100388.16;5038193;28;20082;-68
2022/12/15 03:05:20;;;;;;;53.85;21.25;;;;;;;-7.51;91.39;100383.84;5053439;28;20036;-69
2022/12/15 03:07:49;;;;;;;55.17;20.52;;;;;;;-7.56;90.72;100382.72;5052725;28;20032;-66
2022/12/15 03:10:16;;;;;;;49.25;21.23;;;;;;;-7.58;91.30;100378.41;5056626;28;20039;-66
2022/12/15 03:12:41;;;;;;;49.75;21.25;;;;;;;-7.63;91.30;100383.13;5037998;28;20037;-66
2022/12/15 03:15:07;;;;;;;48.30;19.50;;;;;;;-7.67;91.13;100381.25;5030269;28;20590;-66
2022/12/15 03:17:32;;;;;;;45.65;19.10;;;;;;;-7.66;91.03;100392.13;5032671;28;20040;-65
2022/12/15 03:19:58;;;;;;;50.00;19.38;;;;;;;-7.65;91.22;100381.31;5021143;28;20570;-67
2022/12/15 03:22:23;;;;;;;48.92;19.38;;;;;;;-7.64;91.65;100381.44;5035474;28;20040;-67
2022/12/15 03:24:49;;;;;;;47.42;21.55;;;;;;;-7.60;91.63;100382.44;5025068;28;20036;-66
2022/12/15 03:27:14;;;;;;;51.97;20.42;;;;;;;-7.58;91.82;100383.41;5025122;28;20467;-66
2022/12/15 03:29:39;;;;;;;50.08;21.30;;;;;;;-7.56;91.33;100376.81;5031877;28;20067;-66
2022/12/15 03:32:05;;;;;;;41.85;18.40;;;;;;;-7.53;91.92;100390.41;5028000;28;20068;-66
2022/12/15 03:34:31;;;;;;;45.28;19.23;;;;;;;-7.51;91.68;100385.47;5038306;28;20770;-66
2022/12/15 03:36:56;;;;;;;52.05;21.08;;;;;;;-7.47;92.36;100377.34;5037213;28;20037;-66
2022/12/15 03:39:22;;;;;;;43.03;20.10;;;;;;;-7.41;92.77;100382.72;5033100;28;20053;-66
2022/12/15 03:41:47;;;;;;;58.03;21.38;;;;;;;-7.37;93.19;100379.59;5035140;28;20029;-66
2022/12/15 03:44:13;;;;;;;51.95;19.58;;;;;;;-7.36;92.88;100391.34;5029949;28;20048;-66
2022/12/15 03:46:38;;;;;;;51.38;21.83;;;;;;;-7.35;92.58;100395.59;5037252;28;20053;-66
2022/12/15 03:49:03;;;;;;;39.00;17.80;;;;;;;-7.33;92.42;100404.94;5034115;28;20059;-66
2022/12/15 03:51:29;;;;;;;50.40;21.10;;;;;;;-7.31;93.10;100407.56;5025176;28;20402;-66
2022/12/15 03:53:54;;;;;;;50.08;20.23;;;;;;;-7.31;92.09;100410.06;5033037;28;20116;-66
2022/12/15 03:56:19;;;;;;;38.30;17.05;;;;;;;-7.29;92.44;100408.50;5031415;28;20498;-66
2022/12/15 03:58:45;;;;;;;42.22;18.05;;;;;;;-7.30;92.62;100415.16;5025073;28;20041;-67
2022/12/15 04:01:17;;;;;;;53.65;21.80;;;;;;;-7.28;92.76;100405.22;5041391;28;20072;-67
2022/12/15 04:03:42;;;;;;;47.88;18.15;;;;;;;-7.32;92.40;100411.72;5054846;28;22029;-67
2022/12/15 04:06:08;;;;;;;48.47;18.73;;;;;;;-7.37;92.77;100419.78;5055087;28;20047;-67
2022/12/15 04:08:33;;;;;;;51.33;19.02;;;;;;;-7.42;92.53;100416.97;5053008;28;20666;-66
2022/12/15 04:10:58;;;;;;;55.80;24.23;;;;;;;-7.46;92.53;100412.56;5048342;28;20036;-67
2022/12/15 04:13:24;;;;;;;67.72;24.67;;;;;;;-7.48;92.82;100428.31;5045262;28;20049;-66
2022/12/15 04:15:49;;;;;;;63.75;24.58;;;;;;;-7.51;93.04;100421.47;5052625;28;20040;-67
2022/12/15 04:18:15;;;;;;;75.40;24.90;;;;;;;-7.52;93.39;100423.91;5051136;28;20107;-66
2022/12/15 04:20:40;;;;;;;77.35;24.58;;;;;;;-7.56;92.77;100422.88;5056903;28;20070;-67
2022/12/15 04:23:08;;;;;;;62.97;22.92;;;;;;;-7.58;93.12;100418.53;5048339;28;20064;-66
2022/12/15 05:31:53;;;;;;;43.70;16.95;;;;;;;-7.59;92.01;100459.47;5035486;28;20090;-60
2022/12/15 05:34:27;;;;;;;49.88;21.23;;;;;;;-7.61;91.86;100461.03;5040206;28;20405;-60
2022/12/15 05:36:53;;;;;;;56.23;22.90;;;;;;;-7.61;91.66;100461.91;5055786;28;20523;-60
2022/12/15 05:39:20;;;;;;;47.47;19.75;;;;;;;-7.60;91.75;100475.28;5053199;28;20028;-63
2022/12/15 05:41:46;;;;;;;53.75;20.02;;;;;;;-7.61;91.51;100468.56;5061351;28;20036;-64
2022/12/15 05:44:12;;;;;;;55.90;22.05;;;;;;;-7.59;91.20;100480.41;5054489;28;20040;-63
2022/12/15 05:46:37;;;;;;;51.58;21.60;;;;;;;-7.53;91.36;100472.34;5051343;28;20045;-64
2022/12/15 05:49:06;;;;;;;45.53;20.63;;;;;;;-7.48;90.87;100470.97;5057466;28;20671;-64
2022/12/15 05:51:31;;;;;;;42.78;19.40;;;;;;;-7.44;91.02;100473.75;5055710;28;20036;-64
2022/12/15 05:53:57;;;;;;;51.67;21.02;;;;;;;-7.43;90.94;100474.63;5058267;28;20036;-63
2022/12/15 05:56:24;;;;;;;47.40;20.38;;;;;;;-7.39;91.78;100482.41;5058493;28;20037;-64
2022/12/15 05:58:50;;;;;;;44.03;18.58;;;;;;;-7.34;91.65;100482.69;5059874;28;20040;-64
2022/12/15 06:01:17;;;;;;;48.17;19.35;;;;;;;-7.29;91.05;100473.78;5053354;28;20041;-64
2022/12/15 06:03:42;;;;;;;47.95;19.23;;;;;;;-7.28;91.40;100481.38;5052352;28;20040;-64
2022/12/15 06:06:09;;;;;;;45.55;18.83;;;;;;;-7.23;91.67;100474.13;5053864;28;20024;-63
2022/12/15 06:08:38;;;;;;;47.45;20.15;;;;;;;-7.18;91.38;100483.66;5052203;28;20033;-64
2022/12/15 06:11:04;;;;;;;59.78;22.73;;;;;;;-7.14;91.70;100489.72;5050837;28;20032;-64
2022/12/15 06:13:33;;;;;;;48.10;19.65;;;;;;;-7.07;91.64;100480.88;5049484;28;20037;-64
2022/12/15 06:16:04;;;;;;;42.92;20.70;;;;;;;-7.01;91.42;100477.03;5051570;28;20054;-64
2022/12/15 06:18:32;;;;;;;48.78;22.90;;;;;;;-6.93;90.89;100479.97;5050698;28;20044;-64
2022/12/15 06:21:05;;;;;;;52.17;21.05;;;;;;;-6.82;91.89;100476.41;5049197;28;20029;-64
2022/12/15 06:23:32;;;;;;;42.38;19.50;;;;;;;-6.69;92.39;100479.66;5055670;28;20044;-64
2022/12/15 06:25:58;;;;;;;46.05;20.85;;;;;;;-6.53;93.06;100483.00;5058135;28;20101;-63
2022/12/15 06:28:23;;;;;;;43.42;19.33;;;;;;;-6.40;92.68;100495.47;5053899;28;20040;-64
2022/12/15 06:30:54;;;;;;;42.65;18.85;;;;;;;-6.29;92.45;100500.28;5052203;28;20032;-62
2022/12/15 06:33:21;;;;;;;38.05;18.50;;;;;;;-6.18;92.57;100509.28;5052536;28;20032;-63
2022/12/15 06:35:47;;;;;;;44.20;18.17;;;;;;;-6.06;92.91;100514.94;5060507;28;20073;-64
2022/12/15 06:38:13;;;;;;;35.25;17.10;;;;;;;-5.95;92.55;100517.19;5054527;28;20043;-64
2022/12/15 06:40:38;;;;;;;49.53;21.27;;;;;;;-5.86;92.63;100516.03;5056195;28;20033;-63
2022/12/15 06:43:06;;;;;;;44.30;19.92;;;;;;;-5.77;92.57;100496.38;5048649;28;20055;-63
2022/12/15 06:45:31;;;;;;;46.75;20.38;;;;;;;-5.68;92.46;100506.03;5053072;28;20036;-63
2022/12/15 06:47:57;;;;;;;46.17;21.13;;;;;;;-5.62;92.23;100502.16;5055315;28;20060;-65
2022/12/15 06:50:22;;;;;;;52.67;21.60;;;;;;;-5.55;92.33;100508.38;5056405;28;20072;-63
2022/12/15 06:52:48;;;;;;;50.15;21.73;;;;;;;-5.50;92.28;100499.44;5057083;28;20450;-64
2022/12/15 06:55:13;;;;;;;52.67;21.70;;;;;;;-5.47;92.16;100499.59;5054373;28;20040;-64
2022/12/15 06:57:39;;;;;;;54.03;21.98;;;;;;;-5.41;92.15;100497.34;5048923;28;20481;-63
2022/12/15 07:00:05;;;;;;;48.65;21.95;;;;;;;-5.37;92.11;100496.72;5035989;28;20028;-62
2022/12/15 07:02:31;;;;;;;59.00;23.40;;;;;;;-5.37;92.16;100504.28;5039809;28;20652;-63
2022/12/15 07:04:57;;;;;;;46.60;21.40;;;;;;;-5.33;92.40;100503.66;5048138;28;20041;-64
2022/12/15 07:07:22;;;;;;;55.90;23.58;;;;;;;-5.28;92.54;100514.81;5050585;28;20533;-64
2022/12/15 07:09:48;;;;;;;58.50;23.10;;;;;;;-5.27;91.92;100514.03;5051904;28;20481;-63
2022/12/15 07:12:13;;;;;;;62.20;23.45;;;;;;;-5.24;92.33;100510.81;5054018;28;20056;-59
2022/12/15 07:14:38;;;;;;;54.08;20.65;;;;;;;-5.21;92.54;100504.25;5048872;28;20086;-60
2022/12/15 07:17:04;;;;;;;60.85;22.63;;;;;;;-5.22;92.33;100507.56;5053734;28;20164;-59
2022/12/15 07:19:29;;;;;;;58.60;23.80;;;;;;;-5.21;92.27;100495.84;5053461;28;20119;-61
2022/12/15 07:21:56;;;;;;;62.85;23.73;;;;;;;-5.18;92.12;100501.91;5053279;28;20701;-61
2022/12/15 07:24:22;;;;;;;59.28;25.00;;;;;;;-5.17;92.48;100511.16;5052028;28;20032;-60
2022/12/15 07:26:48;;;;;;;59.60;24.92;;;;;;;-5.11;92.42;100518.16;5054470;28;20040;-69
2022/12/15 07:29:13;;;;;;;61.92;25.80;;;;;;;-5.09;92.56;100521.63;5053952;28;20051;-69
2022/12/15 07:31:40;;;;;;;58.47;24.35;;;;;;;-5.04;92.54;100528.63;5032016;28;20672;-70
2022/12/15 07:34:05;;;;;;;60.13;23.77;;;;;;;-4.97;92.55;100532.31;5045166;28;20044;-70
2022/12/15 07:36:30;;;;;;;67.53;26.10;;;;;;;-4.91;92.40;100527.59;5054392;28;20040;-63
2022/12/15 07:38:59;;;;;;;62.85;26.60;;;;;;;-4.84;92.63;100526.19;5049985;28;20040;-65
2022/12/15 07:41:26;;;;;;;61.78;24.98;;;;;;;-4.79;92.61;100525.66;5054419;28;20048;-64
2022/12/15 07:43:52;;;;;;;64.00;26.63;;;;;;;-4.73;92.61;100522.56;5052736;28;20534;-64
2022/12/15 07:46:18;;;;;;;68.82;25.38;;;;;;;-4.66;92.38;100520.41;5043570;28;20032;-63
2022/12/15 07:48:44;;;;;;;75.55;29.60;;;;;;;-4.61;92.63;100530.72;5049674;28;20029;-64
2022/12/15 07:51:09;;;;;;;73.20;28.95;;;;;;;-4.55;92.57;100534.34;5049288;28;20051;-64
2022/12/15 07:53:35;;;;;;;71.07;28.50;;;;;;;-4.48;92.67;100533.84;5052068;28;20641;-59
2022/12/15 07:56:03;;;;;;;74.60;27.58;;;;;;;-4.38;92.75;100536.03;5051577;28;20037;-59
2022/12/15 07:58:29;;;;;;;87.53;32.28;;;;;;;-4.32;92.43;100541.34;5053056;28;20046;-60
2022/12/15 08:00:59;;;;;;;75.80;28.95;;;;;;;-4.27;92.39;100541.56;5053674;28;20044;-60
2022/12/15 08:03:24;;;;;;;75.32;28.55;;;;;;;-4.20;92.30;100550.28;5050603;28;20158;-70
2022/12/15 08:05:50;;;;;;;71.10;30.00;;;;;;;-4.17;92.28;100550.44;5050884;28;20588;-71
2022/12/15 08:08:17;;;;;;;84.57;32.42;;;;;;;-4.14;91.77;100550.56;5048199;28;20037;-70
2022/12/15 08:10:42;;;;;;;71.82;30.70;;;;;;;-4.10;91.69;100558.34;5046621;28;20069;-70
2022/12/15 08:13:08;;;;;;;74.50;30.70;;;;;;;-4.06;91.48;100559.34;5049843;28;20130;-70
2022/12/15 08:15:35;;;;;;;67.72;27.48;;;;;;;-4.05;91.16;100553.53;5044692;28;20047;-70
2022/12/15 08:18:01;;;;;;;67.43;28.65;;;;;;;-3.98;90.99;100558.91;5051082;28;20071;-70
2022/12/15 08:20:28;;;;;;;63.75;26.52;;;;;;;-4.01;91.02;100557.88;5050891;28;20148;-64
2022/12/15 08:22:53;;;;;;;80.10;29.40;;;;;;;-4.02;90.64;100558.72;5046159;28;20064;-70
2022/12/15 08:25:18;;;;;;;64.15;26.40;;;;;;;-4.09;90.45;100552.50;5046939;28;20880;-70
2022/12/15 08:27:44;;;;;;;73.00;29.25;;;;;;;-4.10;90.51;100553.28;5054491;28;20048;-71
2022/12/15 08:30:09;;;;;;;69.53;26.80;;;;;;;-4.11;90.37;100561.69;5047749;28;20582;-70
2022/12/15 08:32:35;;;;;;;63.67;27.67;;;;;;;-4.11;90.60;100565.84;5053821;28;20063;-71
2022/12/15 08:35:00;;;;;;;67.72;27.45;;;;;;;-4.12;90.39;100554.03;5046757;28;20459;-70
2022/12/15 08:37:25;;;;;;;73.68;27.95;;;;;;;-4.17;90.21;100558.88;5050769;28;20040;-64
2022/12/15 08:39:51;;;;;;;68.55;27.33;;;;;;;-4.12;90.44;100564.13;5052734;28;20068;-65
2022/12/15 08:42:16;;;;;;;74.28;29.83;;;;;;;-4.06;90.40;100557.69;5056683;28;20035;-64
2022/12/15 08:44:41;;;;;;;68.93;29.65;;;;;;;-4.09;90.14;100557.56;5047314;28;20074;-65
2022/12/15 08:47:07;;;;;;;64.95;27.55;;;;;;;-4.12;90.03;100564.13;5050938;28;20044;-65
2022/12/15 08:49:32;;;;;;;66.63;27.45;;;;;;;-4.13;89.92;100572.50;5044513;28;20041;-65
2022/12/15 08:51:58;;;;;;;75.43;29.85;;;;;;;-4.11;90.14;100576.81;5047460;28;20037;-65
2022/12/15 08:54:23;;;;;;;71.25;29.20;;;;;;;-4.12;89.90;100579.25;5048575;28;20040;-65
2022/12/15 08:56:49;;;;;;;61.38;27.08;;;;;;;-4.10;89.91;100586.09;5053544;28;20068;-65
2022/12/15 08:59:14;;;;;;;71.03;28.80;;;;;;;-4.11;90.00;100581.88;5050556;28;20037;-66
2022/12/15 09:01:40;;;;;;;79.07;30.20;;;;;;;-4.07;89.91;100582.84;5055267;28;20163;-66
2022/12/15 09:04:06;;;;;;;68.35;28.15;;;;;;;-4.02;90.01;100589.00;5056208;28;20488;-65
2022/12/15 09:06:34;;;;;;;71.85;30.77;;;;;;;-3.93;90.21;100599.53;5054437;28;20494;-60
2022/12/15 09:09:03;;;;;;;66.72;31.00;;;;;;;-3.84;89.97;100587.31;5054992;28;20042;-59
2022/12/15 09:11:29;;;;;;;70.72;30.33;;;;;;;-3.78;89.55;100592.66;5059649;28;20131;-60
2022/12/15 09:13:55;;;;;;;76.60;29.70;;;;;;;-3.75;89.28;100603.72;5058397;28;20112;-59
2022/12/15 09:16:21;;;;;;;68.45;29.77;;;;;;;-3.81;89.03;100603.44;5058268;28;20047;-62
2022/12/15 09:18:51;;;;;;;67.55;31.65;;;;;;;-3.83;89.34;100617.66;5051607;28;20047;-60
2022/12/15 09:21:21;;;;;;;67.53;29.75;;;;;;;-3.78;89.18;100620.44;5049264;28;20459;-60
2022/12/15 09:23:50;;;;;;;66.32;27.73;;;;;;;-3.71;89.47;100622.41;5052971;28;20036;-58
2022/12/15 09:26:16;;;;;;;78.72;31.58;;;;;;;-3.73;88.99;100633.25;5058017;28;20065;-60
2022/12/15 09:28:42;;;;;;;74.43;31.40;;;;;;;-3.72;89.00;100623.22;5060940;28;20099;-60
2022/12/15 09:31:12;;;;;;;83.53;32.58;;;;;;;-3.73;88.63;100618.97;5055810;28;20644;-59
2022/12/15 09:33:39;;;;;;;79.18;33.60;;;;;;;-3.72;88.81;100625.75;5052385;28;20580;-60
2022/12/15 09:36:05;;;;;;;69.40;29.65;;;;;;;-3.69;88.67;100633.47;5035924;28;20539;-60
2022/12/15 09:38:37;;;;;;;78.60;30.67;;;;;;;-3.63;88.73;100632.88;5040478;28;20031;-59
2022/12/15 09:41:12;;;;;;;66.93;29.15;;;;;;;-3.51;88.56;100630.91;5036846;28;20053;-59
2022/12/15 09:43:51;;;;;;;73.45;31.23;;;;;;;-3.47;88.30;100636.16;5043411;28;20083;-59
2022/12/15 09:46:22;;;;;;;73.78;32.85;;;;;;;-3.46;87.73;100648.00;5051704;28;20669;-60
2022/12/15 09:48:50;;;;;;;68.45;31.38;;;;;;;-3.44;87.89;100640.47;5057423;28;20520;-60
2022/12/15 09:51:17;;;;;;;65.35;31.13;;;;;;;-3.36;87.78;100636.66;5053736;28;20115;-59
2022/12/15 09:53:43;;;;;;;69.20;30.02;;;;;;;-3.31;87.57;100640.25;5053861;28;20309;-60
2022/12/15 09:56:22;;;;;;;73.88;31.10;;;;;;;-3.12;87.55;100644.47;5055764;28;20409;-60
2022/12/15 09:59:08;;;;;;;71.20;29.25;;;;;;;-3.04;86.64;100645.66;5051099;28;20052;-59
2022/12/15 10:01:50;;;;;;;65.35;28.90;;;;;;;-2.94;85.46;100642.69;5056922;28;20319;-59
2022/12/15 10:04:22;;;;;;;63.92;28.75;;;;;;;-2.92;85.21;100649.59;5057642;28;20059;-61
2022/12/15 10:06:53;;;;;;;61.03;27.60;;;;;;;-2.79;85.47;100639.16;5051012;28;20052;-61
2022/12/15 10:09:28;;;;;;;65.25;30.10;;;;;;;-2.77;84.61;100635.03;5052078;28;20020;-61
2022/12/15 10:12:15;;;;;;;63.08;29.08;;;;;;;-2.72;84.64;100637.78;5053203;28;20029;-61
2022/12/15 10:14:42;;;;;;;72.70;32.22;;;;;;;-2.75;84.43;100630.06;5050183;28;20074;-60
2022/12/15 10:17:21;;;;;;;82.88;35.03;;;;;;;-2.64;84.52;100646.53;5054676;28;20052;-61
2022/12/15 10:20:05;;;;;;;69.38;31.10;;;;;;;-2.62;84.23;100652.56;5051390;28;20044;-61
2022/12/15 10:22:35;;;;;;;68.53;29.73;;;;;;;-2.49;84.49;100654.78;5054206;28;20425;-62
2022/12/15 10:25:25;;;;;;;62.88;27.65;;;;;;;-2.45;84.54;100650.72;5053333;28;20039;-61
2022/12/15 10:28:20;;;;;;;62.97;28.95;;;;;;;-2.32;83.93;100640.31;5054960;28;20485;-61
2022/12/15 10:31:05;;;;;;;59.92;27.85;;;;;;;-2.34;83.69;100635.16;5051619;28;20078;-61
2022/12/15 10:33:38;;;;;;;62.70;28.15;;;;;;;-2.33;83.93;100639.44;5056204;28;20047;-65
2022/12/15 10:36:12;;;;;;;69.35;31.42;;;;;;;-2.33;82.28;100638.56;5051643;28;20028;-61
2022/12/15 10:38:41;;;;;;;60.70;28.63;;;;;;;-2.35;82.52;100641.00;5050129;28;20036;-61
2022/12/15 10:41:10;;;;;;;63.25;28.48;;;;;;;-2.26;82.97;100638.84;5053388;28;20043;-61
2022/12/15 10:43:41;;;;;;;64.38;29.45;;;;;;;-2.31;82.97;100629.34;5048584;28;20041;-61
2022/12/15 10:46:13;;;;;;;58.92;28.85;;;;;;;-2.30;83.08;100626.91;5049154;28;20128;-61
2022/12/15 10:49:00;;;;;;;58.33;28.50;;;;;;;-2.36;83.31;100624.13;5053847;28;20063;-71
2022/12/15 10:51:31;;;;;;;65.05;29.27;;;;;;;-2.40;83.08;100632.38;5050710;28;20044;-71
2022/12/15 10:54:09;;;;;;;60.53;28.92;;;;;;;-2.36;82.73;100625.78;5054895;28;20082;-70
2022/12/15 10:56:44;;;;;;;60.22;29.13;;;;;;;-2.42;82.95;100623.00;5057233;28;20044;-70
2022/12/15 10:59:22;;;;;;;60.03;29.40;;;;;;;-2.54;83.22;100628.44;5054664;28;20510;-70
2022/12/15 11:01:49;;;;;;;63.30;29.40;;;;;;;-2.45;84.24;100627.94;5054117;28;20586;-71
2022/12/15 11:04:30;;;;;;;56.35;27.40;;;;;;;-2.44;83.35;100622.91;5058271;28;20127;-70
2022/12/15 11:07:01;;;;;;;52.95;25.85;;;;;;;-2.32;83.51;100620.06;5058043;28;20515;-70
2022/12/15 11:09:34;;;;;;;64.60;28.52;;;;;;;-2.19;84.11;100625.66;5062985;28;20578;-70
2022/12/15 11:14:48;;;;;;;65.75;29.25;;;;;;;-2.16;83.23;100617.31;5055732;28;20455;-70
2022/12/15 11:17:20;;;;;;;57.80;28.02;;;;;;;-2.17;82.80;100613.91;5058704;28;20838;-71
2022/12/15 11:19:45;;;;;;;57.70;27.52;;;;;;;-2.42;82.94;100608.69;5059244;28;20401;-71
2022/12/15 11:22:41;;;;;;;56.92;27.48;;;;;;;-2.68;83.51;100616.88;5059979;28;20131;-70
2022/12/15 11:25:41;;;;;;;57.78;27.65;;;;;;;-2.81;84.71;100619.69;5061053;28;20052;-71
2022/12/15 11:28:21;;;;;;;57.05;27.88;;;;;;;-2.91;84.90;100608.31;5056456;28;20048;-71
2022/12/15 11:30:55;;;;;;;58.38;26.67;;;;;;;-2.98;85.42;100613.06;5051301;28;20055;-71
2022/12/15 11:33:20;;;;;;;65.35;29.02;;;;;;;-3.01;85.57;100611.25;5061204;28;20489;-71
2022/12/15 11:35:46;;;;;;;57.83;27.15;;;;;;;-3.01;85.97;100620.50;5060760;28;20032;-71
2022/12/15 11:38:29;;;;;;;55.58;25.05;;;;;;;-3.03;85.90;100611.97;5058209;28;20124;-71
2022/12/15 11:41:03;;;;;;;55.42;26.35;;;;;;;-3.00;85.79;100615.50;5056863;28;20060;-71
2022/12/15 11:44:00;;;;;;;54.35;25.98;;;;;;;-2.94;85.73;100604.78;5053972;28;20071;-71
2022/12/15 11:46:37;;;;;;;70.82;29.85;;;;;;;-2.89;85.64;100601.66;5043038;28;20047;-70
2022/12/15 11:49:22;;;;;;;57.85;27.73;;;;;;;-2.88;85.81;100597.44;5062638;28;20584;-70
2022/12/15 11:52:10;;;;;;;57.53;25.65;;;;;;;-2.86;86.07;100601.81;5053547;28;20036;-64
2022/12/15 11:54:38;;;;;;;51.53;25.80;;;;;;;-2.86;85.53;100608.50;5051405;28;20041;-64
2022/12/15 11:57:09;;;;;;;52.65;25.67;;;;;;;-2.79;86.10;100607.94;5052306;28;20035;-63
2022/12/15 12:00:05;;;;;;;52.60;24.10;;;;;;;-2.79;85.58;100597.84;5055535;28;20040;-65
2022/12/15 12:02:39;;;;;;;50.60;25.95;;;;;;;-2.84;85.54;100584.16;5053663;28;20129;-65
2022/12/15 12:05:16;;;;;;;48.75;24.15;;;;;;;-2.81;85.69;100581.75;5054960;28;20154;-60
2022/12/15 12:07:49;;;;;;;49.38;24.38;;;;;;;-2.82;85.62;100588.47;5061735;28;20801;-61
2022/12/15 12:10:29;;;;;;;51.25;24.33;;;;;;;-2.85;85.51;100588.34;5049526;28;20044;-61
2022/12/15 12:12:57;;;;;;;56.08;24.13;;;;;;;-2.83;85.91;100588.41;5051728;28;20048;-61
2022/12/15 12:15:38;;;;;;;54.97;25.27;;;;;;;-2.82;85.33;100592.66;5057720;28;20081;-61
2022/12/15 12:18:09;;;;;;;55.80;25.33;;;;;;;-2.86;84.94;100578.16;5052372;28;20035;-61
2022/12/15 12:20:57;;;;;;;53.58;25.83;;;;;;;-2.89;85.13;100570.44;5050820;28;20036;-60
2022/12/15 12:23:57;;;;;;;57.33;27.98;;;;;;;-2.93;84.93;100563.53;5054200;28;20071;-60
2022/12/15 12:26:42;;;;;;;50.90;25.70;;;;;;;-2.94;85.30;100561.78;5048722;28;20560;-60
2022/12/15 12:29:44;;;;;;;60.15;28.77;;;;;;;-2.90;85.66;100548.50;5055266;28;20048;-61
2022/12/15 12:32:33;;;;;;;56.33;26.25;;;;;;;-2.93;85.45;100551.75;5057862;28;20031;-61
2022/12/15 12:35:26;;;;;;;58.33;27.05;;;;;;;-2.92;85.69;100547.56;5053263;28;20045;-61
2022/12/15 12:38:01;;;;;;;56.58;27.42;;;;;;;-2.94;85.85;100549.16;5051534;28;20036;-61
2022/12/15 12:40:39;;;;;;;56.08;27.15;;;;;;;-2.95;85.63;100558.44;5047452;28;20572;-60
2022/12/15 12:43:10;;;;;;;48.25;24.58;;;;;;;-2.97;85.45;100554.06;5048319;28;20044;-61
2022/12/15 12:45:44;;;;;;;63.78;26.35;;;;;;;-2.95;85.56;100548.31;5055989;28;20043;-61
2022/12/15 12:48:21;;;;;;;54.85;25.83;;;;;;;-2.90;85.75;100546.81;5052984;28;20043;-62
2022/12/15 12:50:46;;;;;;;56.08;25.70;;;;;;;-2.84;85.61;100538.63;5051817;28;20092;-61
2022/12/15 12:53:31;;;;;;;49.75;23.55;;;;;;;-2.79;85.89;100532.94;5029941;28;20383;-61
2022/12/15 12:55:56;;;;;;;55.83;23.75;;;;;;;-2.78;84.53;100531.28;5031268;28;20125;-61
2022/12/15 12:58:36;;;;;;;58.40;26.63;;;;;;;-2.77;85.46;100523.75;5032942;28;20034;-62
2022/12/15 13:01:15;;;;;;;51.55;23.90;;;;;;;-2.75;85.22;100523.81;5036682;28;20045;-61
2022/12/15 13:03:42;;;;;;;57.90;25.58;;;;;;;-2.78;85.33;100518.66;5032922;28;20095;-61
2022/12/15 13:06:49;;;;;;;68.53;32.25;;;;;;;-2.79;85.51;100519.44;5036991;28;20573;-61
2022/12/15 13:09:20;;;;;;;62.58;32.22;;;;;;;-2.83;85.81;100513.38;5034970;28;20141;-60
2022/12/15 13:11:51;;;;;;;60.13;33.80;;;;;;;-2.83;85.79;100510.03;5058663;28;20021;-61
2022/12/15 13:14:43;;;;;;;55.60;28.85;;;;;;;-2.77;85.15;100501.00;5036233;28;20113;-61
2022/12/15 13:17:21;;;;;;;53.28;30.35;;;;;;;-2.71;84.60;100487.75;5024838;28;20132;-70
2022/12/15 13:19:55;;;;;;;48.60;24.83;;;;;;;-2.63;84.28;100483.84;5033265;28;20490;-70
2022/12/15 13:22:39;;;;;;;42.78;22.00;;;;;;;-2.56;84.80;100477.38;5040622;28;20802;-69
2022/12/15 13:25:26;;;;;;;50.20;24.42;;;;;;;-2.53;83.91;100480.03;5052070;28;20782;-61
2022/12/15 13:28:00;;;;;;;45.55;22.45;;;;;;;-2.55;83.38;100476.53;5052328;28;20041;-60
2022/12/15 13:30:26;;;;;;;38.03;18.02;;;;;;;-2.54;82.64;100469.03;5046173;28;20045;-59
2022/12/15 13:33:15;;;;;;;45.70;23.90;;;;;;;-2.53;82.90;100468.19;5054167;28;20673;-60
2022/12/15 13:35:42;;;;;;;49.45;22.60;;;;;;;-2.55;82.69;100456.31;5048942;28;20040;-59
2022/12/15 13:38:17;;;;;;;43.53;21.77;;;;;;;-2.52;82.83;100458.94;5051857;28;20041;-59
2022/12/15 13:40:53;;;;;;;45.78;21.95;;;;;;;-2.58;82.28;100454.53;5049054;28;20124;-59
2022/12/15 13:43:27;;;;;;;48.97;21.83;;;;;;;-2.65;82.23;100445.81;5052006;28;20051;-60
2022/12/15 13:45:57;;;;;;;50.92;22.40;;;;;;;-2.69;82.52;100450.72;5052679;28;20071;-59
2022/12/15 13:48:27;;;;;;;44.88;22.08;;;;;;;-2.68;82.84;100445.72;5054394;28;20040;-61